Time;durP1;ratioP1;P1;durP2;ratioP2;P2;SDS_P1;SDS_P2;PMS_P1;PMS_P2;Temp;Humidity;BMP_temperature;BMP_pressure;BME280_temperature;BME280_humidity;BME280_pressure;Samples;Min_cycle;Max_cycle;Signal;HPM_P1;HPM_P2
2023/08/10 00:01:19;;;;;;;8.05;2.63;;;;;;;;;;5006008;28;20045;-67
2023/08/10 00:03:45;;;;;;;7.93;2.65;;;;;;;;;;5002485;28;20135;-68
2023/08/10 00:06:11;;;;;;;9.48;2.50;;;;;;;;;;5001052;28;20447;-66
2023/08/10 00:08:37;;;;;;;8.60;2.75;;;;;;;;;;5000781;28;20057;-66
2023/08/10 00:11:04;;;;;;;6.80;2.30;;;;;;;;;;5006103;28;20108;-67
2023/08/10 00:13:30;;;;;;;8.93;2.65;;;;;;;;;;5001134;28;20057;-66
2023/08/10 00:15:57;;;;;;;6.57;2.30;;;;;;;;;;5000302;28;20049;-65
2023/08/10 00:18:23;;;;;;;9.80;2.65;;;;;;;;;;5006638;28;20049;-67
2023/08/10 00:20:49;;;;;;;8.65;2.42;;;;;;;;;;5006216;28;20073;-67
2023/08/10 00:23:15;;;;;;;8.73;2.60;;;;;;;;;;5002471;28;20054;-67
2023/08/10 00:25:41;;;;;;;9.45;2.40;;;;;;;;;;5003439;28;20146;-66
2023/08/10 00:28:07;;;;;;;13.50;2.63;;;;;;;;;;4996907;28;20050;-66
2023/08/10 00:30:34;;;;;;;6.50;2.35;;;;;;;;;;5004925;28;20135;-67
2023/08/10 00:32:59;;;;;;;6.85;2.60;;;;;;;;;;5003336;28;20161;-66
2023/08/10 00:35:25;;;;;;;9.52;2.55;;;;;;;;;;5002277;28;20056;-66
2023/08/10 00:37:51;;;;;;;9.95;2.17;;;;;;;;;;5000945;28;20049;-68
2023/08/10 00:40:17;;;;;;;9.85;2.60;;;;;;;;;;5003976;28;20698;-67
2023/08/10 00:42:43;;;;;;;8.70;2.03;;;;;;;;;;5002377;28;20049;-66
2023/08/10 00:45:09;;;;;;;7.38;2.13;;;;;;;;;;5002636;28;20058;-68
2023/08/10 00:47:36;;;;;;;5.85;2.20;;;;;;;;;;5004567;28;20137;-67
2023/08/10 00:50:03;;;;;;;8.65;2.30;;;;;;;;;;5004266;28;20487;-65
2023/08/10 00:52:30;;;;;;;6.15;2.20;;;;;;;;;;5003464;28;20060;-66
2023/08/10 00:54:57;;;;;;;8.13;2.40;;;;;;;;;;5004531;28;20053;-66
2023/08/10 00:57:22;;;;;;;9.02;2.60;;;;;;;;;;5002573;28;20053;-66
2023/08/10 00:59:49;;;;;;;5.63;1.85;;;;;;;;;;5003412;28;20465;-67
2023/08/10 01:02:16;;;;;;;8.40;2.45;;;;;;;;;;5001381;28;20609;-67
2023/08/10 01:04:42;;;;;;;7.55;2.10;;;;;;;;;;5005445;28;20061;-65
2023/08/10 01:07:16;;;;;;;7.93;2.33;;;;;;;;;;5001421;28;20069;-66
2023/08/10 01:10:05;;;;;;;9.32;2.22;;;;;;;;;;5004687;28;20045;-67
2023/08/10 01:12:41;;;;;;;8.25;2.30;;;;;;;;;;5000950;28;21336;-70
2023/08/10 01:15:17;;;;;;;8.63;2.42;;;;;;;;;;5002230;28;20048;-70
2023/08/10 01:17:50;;;;;;;12.20;2.53;;;;;;;;;;5001204;28;20422;-70
2023/08/10 01:20:19;;;;;;;7.63;2.30;;;;;;;;;;5000846;28;20057;-69
2023/08/10 01:23:12;;;;;;;9.60;2.38;;;;;;;;;;4999642;28;20057;-69
2023/08/10 01:25:41;;;;;;;8.20;2.17;;;;;;;;;;5001855;28;20537;-71
2023/08/10 01:28:09;;;;;;;11.57;2.30;;;;;;;;;;4999222;28;20146;-70
2023/08/10 01:30:36;;;;;;;7.40;2.33;;;;;;;;;;5004038;28;20049;-71
2023/08/10 01:33:42;;;;;;;10.35;2.45;;;;;;;;;;4997250;28;20060;-70
2023/08/10 01:37:22;;;;;;;9.55;2.45;;;;;;;;;;5003219;28;20107;-69
2023/08/10 01:41:03;;;;;;;9.15;2.25;;;;;;;;;;5000463;28;20049;-70
2023/08/10 01:44:43;;;;;;;12.75;2.40;;;;;;;;;;4998952;28;20057;-68
2023/08/10 01:47:49;;;;;;;8.60;2.47;;;;;;;;;;5000098;28;20119;-69
2023/08/10 01:51:30;;;;;;;8.15;2.50;;;;;;;;;;4998960;28;20411;-68
2023/08/10 01:55:11;;;;;;;13.23;2.47;;;;;;;;;;4999543;28;20155;-69
2023/08/10 01:58:50;;;;;;;11.77;2.30;;;;;;;;;;4999425;28;20048;-70
2023/08/10 02:02:32;;;;;;;11.80;2.50;;;;;;;;;;5001814;28;20077;-69
2023/08/10 02:06:11;;;;;;;10.63;2.35;;;;;;;;;;5000856;28;20774;-68
2023/08/10 02:09:51;;;;;;;10.27;2.58;;;;;;;;;;4999194;28;20133;-68
2023/08/10 02:13:32;;;;;;;8.95;2.83;;;;;;;;;;4998573;28;20471;-69
2023/08/10 02:17:12;;;;;;;15.27;2.83;;;;;;;;;;5001110;28;20766;-69
2023/08/10 02:20:52;;;;;;;8.18;3.10;;;;;;;;;;5003107;28;20531;-70
2023/08/10 02:24:33;;;;;;;9.20;3.08;;;;;;;;;;4999262;28;20434;-69
2023/08/10 02:28:14;;;;;;;11.30;3.40;;;;;;;;;;4995906;28;20111;-69
2023/08/10 02:31:54;;;;;;;14.13;3.35;;;;;;;;;;4999243;28;20131;-69
2023/08/10 02:35:34;;;;;;;10.38;3.25;;;;;;;;;;4999860;28;20111;-68
2023/08/10 02:39:14;;;;;;;12.10;3.90;;;;;;;;;;5000259;28;20152;-68
2023/08/10 02:42:55;;;;;;;17.38;3.95;;;;;;;;;;4999396;28;20467;-68
2023/08/10 02:46:36;;;;;;;8.63;3.30;;;;;;;;;;4999461;28;20068;-69
2023/08/10 02:50:15;;;;;;;12.02;3.40;;;;;;;;;;5000445;28;20128;-67
2023/08/10 02:53:56;;;;;;;9.80;3.35;;;;;;;;;;4998809;28;20054;-68
2023/08/10 02:57:36;;;;;;;12.30;3.40;;;;;;;;;;5000715;28;20590;-69
2023/08/10 03:01:17;;;;;;;14.48;3.35;;;;;;;;;;4999905;28;20542;-68
2023/08/10 03:04:57;;;;;;;14.60;3.75;;;;;;;;;;4999164;28;20068;-68
2023/08/10 03:08:37;;;;;;;16.42;4.15;;;;;;;;;;4998244;28;20407;-67
2023/08/10 03:12:18;;;;;;;11.57;3.40;;;;;;;;;;5006511;28;20150;-68
2023/08/10 03:15:58;;;;;;;12.75;3.67;;;;;;;;;;5002804;28;20464;-68
2023/08/10 03:19:38;;;;;;;10.23;3.85;;;;;;;;;;4999487;28;20339;-71
2023/08/10 03:23:19;;;;;;;12.00;3.45;;;;;;;;;;5006022;28;20065;-68
2023/08/10 03:26:59;;;;;;;12.18;3.30;;;;;;;;;;5004739;28;20048;-68
2023/08/10 03:30:41;;;;;;;12.35;3.92;;;;;;;;;;5007135;28;20077;-71
2023/08/10 03:34:20;;;;;;;13.10;3.50;;;;;;;;;;5001267;28;20074;-69
2023/08/10 03:38:00;;;;;;;9.05;3.22;;;;;;;;;;5001543;28;20056;-68
2023/08/10 03:41:40;;;;;;;9.05;3.30;;;;;;;;;;5003948;28;20466;-68
2023/08/10 03:45:21;;;;;;;12.75;3.67;;;;;;;;;;5002228;28;20108;-69
2023/08/10 03:49:01;;;;;;;10.98;3.17;;;;;;;;;;4999640;28;20056;-70
2023/08/10 03:52:41;;;;;;;13.32;3.40;;;;;;;;;;4998790;28;20049;-69
2023/08/10 03:56:21;;;;;;;17.50;3.70;;;;;;;;;;5004697;28;20042;-68
2023/08/10 04:00:03;;;;;;;11.80;3.65;;;;;;;;;;5001782;28;20045;-69
2023/08/10 04:03:43;;;;;;;10.75;3.25;;;;;;;;;;4998320;28;22282;-69
2023/08/10 04:07:23;;;;;;;9.90;3.15;;;;;;;;;;5002016;28;20080;-71
2023/08/10 04:11:03;;;;;;;7.47;2.45;;;;;;;;;;5003579;28;20463;-70
2023/08/10 04:14:44;;;;;;;14.50;3.50;;;;;;;;;;4999946;28;20045;-70
2023/08/10 04:18:24;;;;;;;12.07;2.83;;;;;;;;;;5000641;28;20064;-72
2023/08/10 04:22:06;;;;;;;13.40;3.15;;;;;;;;;;5008329;28;20112;-71
2023/08/10 04:25:45;;;;;;;11.52;3.33;;;;;;;;;;5002582;28;21255;-72
2023/08/10 04:29:27;;;;;;;11.00;3.00;;;;;;;;;;4999550;28;20060;-71
2023/08/10 04:33:07;;;;;;;9.40;3.05;;;;;;;;;;4999441;28;20560;-69
2023/08/10 04:36:47;;;;;;;7.93;2.85;;;;;;;;;;5000995;28;20041;-70
2023/08/10 04:40:27;;;;;;;13.65;3.25;;;;;;;;;;5002337;28;20049;-69
2023/08/10 04:44:08;;;;;;;13.43;3.10;;;;;;;;;;4999417;28;20060;-70
2023/08/10 04:47:48;;;;;;;12.13;3.20;;;;;;;;;;5002869;28;20159;-72
2023/08/10 04:51:28;;;;;;;11.35;3.72;;;;;;;;;;5005757;28;20106;-70
2023/08/10 04:55:09;;;;;;;12.10;3.20;;;;;;;;;;5002838;28;20053;-69
2023/08/10 04:58:49;;;;;;;10.63;3.28;;;;;;;;;;5000767;28;20491;-69
2023/08/10 05:02:29;;;;;;;10.50;3.30;;;;;;;;;;5003550;28;20076;-70
2023/08/10 05:06:10;;;;;;;9.27;3.00;;;;;;;;;;5002463;28;20042;-69
2023/08/10 05:09:50;;;;;;;10.82;3.05;;;;;;;;;;5003623;28;20049;-71
2023/08/10 05:13:30;;;;;;;8.52;2.97;;;;;;;;;;5002889;28;20180;-70
2023/08/10 05:17:11;;;;;;;9.77;3.22;;;;;;;;;;5000209;28;20526;-71
2023/08/10 05:20:51;;;;;;;10.40;3.88;;;;;;;;;;5003952;28;20034;-70
2023/08/10 05:24:34;;;;;;;13.23;4.38;;;;;;;;;;5002964;28;20130;-68
2023/08/10 05:28:14;;;;;;;14.68;4.32;;;;;;;;;;5001681;28;20053;-69
2023/08/10 05:31:55;;;;;;;14.05;4.60;;;;;;;;;;5005212;28;20057;-68
2023/08/10 05:35:35;;;;;;;12.70;4.45;;;;;;;;;;5006002;28;20182;-69
2023/08/10 05:39:15;;;;;;;11.65;4.50;;;;;;;;;;5001879;28;20107;-71
2023/08/10 05:42:56;;;;;;;16.23;4.53;;;;;;;;;;5001310;28;20053;-69
2023/08/10 05:46:36;;;;;;;19.73;4.28;;;;;;;;;;5004111;28;20495;-69
2023/08/10 05:50:16;;;;;;;19.77;4.72;;;;;;;;;;5001412;28;20132;-70
2023/08/10 05:53:57;;;;;;;14.57;4.75;;;;;;;;;;5006945;28;20060;-69
2023/08/10 05:57:38;;;;;;;16.98;4.72;;;;;;;;;;5023106;28;20045;-71
2023/08/10 06:01:17;;;;;;;18.75;4.63;;;;;;;;;;5021824;28;20087;-69
2023/08/10 06:04:57;;;;;;;16.02;4.35;;;;;;;;;;5014963;28;20502;-68
2023/08/10 06:08:38;;;;;;;15.55;4.72;;;;;;;;;;5026868;28;20041;-68
2023/08/10 06:12:18;;;;;;;18.13;4.63;;;;;;;;;;5022861;28;20080;-73
2023/08/10 06:15:59;;;;;;;15.63;4.15;;;;;;;;;;5018723;28;20046;-70
2023/08/10 06:19:39;;;;;;;20.45;5.32;;;;;;;;;;5018431;28;20043;-69
2023/08/10 06:23:19;;;;;;;17.95;4.60;;;;;;;;;;5018936;28;20037;-72
2023/08/10 06:27:00;;;;;;;14.00;4.45;;;;;;;;;;5014409;28;20451;-70
2023/08/10 06:30:42;;;;;;;18.27;4.68;;;;;;;;;;5013041;28;20068;-69
2023/08/10 06:34:20;;;;;;;19.77;4.90;;;;;;;;;;5001571;28;20478;-68
2023/08/10 06:38:02;;;;;;;14.77;4.80;;;;;;;;;;5001120;28;20053;-69
2023/08/10 06:41:41;;;;;;;18.17;4.78;;;;;;;;;;5001276;28;20080;-69
2023/08/10 06:45:21;;;;;;;15.23;5.22;;;;;;;;;;5004289;28;20273;-72
2023/08/10 06:49:01;;;;;;;19.23;4.57;;;;;;;;;;5001314;28;20052;-71
2023/08/10 06:52:42;;;;;;;11.55;4.30;;;;;;;;;;5008527;28;20668;-69
2023/08/10 06:56:22;;;;;;;15.07;4.60;;;;;;;;;;5005499;28;20527;-68
2023/08/10 07:00:05;;;;;;;15.93;4.13;;;;;;;;;;5006393;28;20124;-71
2023/08/10 07:03:43;;;;;;;15.52;4.82;;;;;;;;;;5005593;28;20065;-71
2023/08/10 07:07:24;;;;;;;10.88;4.00;;;;;;;;;;5006009;28;20572;-70
2023/08/10 07:11:04;;;;;;;9.88;3.92;;;;;;;;;;5005786;28;20045;-71
2023/08/10 07:14:44;;;;;;;15.55;4.35;;;;;;;;;;5004268;28;20073;-72
2023/08/10 07:18:24;;;;;;;14.00;3.90;;;;;;;;;;5003222;28;20446;-72
2023/08/10 07:22:05;;;;;;;18.67;4.15;;;;;;;;;;5013022;28;20384;-70
2023/08/10 07:25:45;;;;;;;14.65;3.90;;;;;;;;;;5005091;28;20107;-69
2023/08/10 07:29:25;;;;;;;15.35;4.03;;;;;;;;;;5005581;28;20063;-70
2023/08/10 07:33:06;;;;;;;14.10;4.15;;;;;;;;;;5005530;28;20522;-70
2023/08/10 07:36:46;;;;;;;19.48;3.70;;;;;;;;;;5007675;28;20244;-70
2023/08/10 07:40:27;;;;;;;11.10;3.30;;;;;;;;;;5004629;28;20407;-70
2023/08/10 07:44:07;;;;;;;12.27;3.47;;;;;;;;;;5004847;28;20535;-72
2023/08/10 07:47:47;;;;;;;13.80;3.70;;;;;;;;;;5004146;28;20052;-68
2023/08/10 07:51:27;;;;;;;12.20;3.13;;;;;;;;;;5004472;28;20049;-70
2023/08/10 07:55:08;;;;;;;9.60;3.38;;;;;;;;;;5005139;28;20149;-71
2023/08/10 07:58:48;;;;;;;10.35;3.35;;;;;;;;;;5002488;28;20050;-70
2023/08/10 08:02:29;;;;;;;11.18;3.10;;;;;;;;;;5005321;28;20113;-71
2023/08/10 08:06:10;;;;;;;20.55;3.88;;;;;;;;;;5003390;28;20179;-72
2023/08/10 08:09:50;;;;;;;17.35;3.22;;;;;;;;;;5002500;28;20041;-72
2023/08/10 08:13:31;;;;;;;10.77;2.67;;;;;;;;;;5003796;28;20197;-73
2023/08/10 08:17:11;;;;;;;20.92;3.60;;;;;;;;;;5004902;28;20049;-66
2023/08/10 08:20:51;;;;;;;12.43;2.78;;;;;;;;;;5005876;28;20068;-67
2023/08/10 08:24:32;;;;;;;12.93;3.00;;;;;;;;;;5002918;28;20061;-68
2023/08/10 08:28:12;;;;;;;10.75;4.13;;;;;;;;;;5005826;28;20041;-68
2023/08/10 08:31:53;;;;;;;10.38;3.00;;;;;;;;;;5005684;28;20449;-69
2023/08/10 08:35:33;;;;;;;14.75;3.10;;;;;;;;;;5005008;28;20060;-68
2023/08/10 08:39:13;;;;;;;14.05;3.15;;;;;;;;;;5001786;28;20049;-68
2023/08/10 08:42:54;;;;;;;15.82;3.53;;;;;;;;;;5002592;28;20486;-71
2023/08/10 08:46:34;;;;;;;23.17;3.40;;;;;;;;;;5007723;28;20201;-71
2023/08/10 08:50:14;;;;;;;15.68;3.30;;;;;;;;;;5006022;28;20774;-69
2023/08/10 08:53:55;;;;;;;11.95;3.20;;;;;;;;;;5004467;28;20649;-70
2023/08/10 08:57:35;;;;;;;12.18;3.35;;;;;;;;;;4988604;28;20420;-70
2023/08/10 09:01:15;;;;;;;13.02;3.58;;;;;;;;;;5002081;28;20080;-71
2023/08/10 09:04:59;;;;;;;13.93;3.38;;;;;;;;;;5002991;28;20506;-69
2023/08/10 09:08:38;;;;;;;21.30;3.85;;;;;;;;;;5004739;28;20048;-69
2023/08/10 09:12:16;;;;;;;18.85;3.65;;;;;;;;;;5006301;28;20132;-70
2023/08/10 09:15:57;;;;;;;17.17;3.80;;;;;;;;;;5000757;28;20184;-70
2023/08/10 09:19:37;;;;;;;17.02;3.65;;;;;;;;;;5004730;28;20059;-69
2023/08/10 09:23:18;;;;;;;19.52;3.88;;;;;;;;;;5003806;28;20057;-71
2023/08/10 09:26:58;;;;;;;15.60;3.30;;;;;;;;;;5000975;28;20486;-71
2023/08/10 09:30:44;;;;;;;15.30;3.45;;;;;;;;;;5001917;28;21318;-71
2023/08/10 09:34:25;;;;;;;23.25;4.03;;;;;;;;;;5005196;28;20462;-70
2023/08/10 09:38:06;;;;;;;19.13;3.63;;;;;;;;;;5005567;28;20084;-73
2023/08/10 09:41:45;;;;;;;17.52;4.30;;;;;;;;;;5001965;28;20057;-72
2023/08/10 09:45:28;;;;;;;13.13;4.65;;;;;;;;;;5002841;28;20060;-71
2023/08/10 09:49:09;;;;;;;17.40;4.32;;;;;;;;;;5007352;28;20499;-71
2023/08/10 09:52:52;;;;;;;19.92;4.05;;;;;;;;;;5002849;28;20053;-71
2023/08/10 09:56:31;;;;;;;11.00;4.05;;;;;;;;;;5003738;28;20166;-72
2023/08/10 10:00:15;;;;;;;12.95;3.75;;;;;;;;;;5003324;28;20052;-71
2023/08/10 10:03:50;;;;;;;17.50;4.03;;;;;;;;;;5001615;28;20622;-72
2023/08/10 10:07:31;;;;;;;20.33;4.20;;;;;;;;;;5001068;28;20431;-70
2023/08/10 10:11:13;;;;;;;17.45;3.33;;;;;;;;;;5009891;28;21328;-73
2023/08/10 10:14:51;;;;;;;20.90;4.70;;;;;;;;;;5003612;28;20590;-74
2023/08/10 10:18:35;;;;;;;17.40;4.00;;;;;;;;;;5003966;28;20046;-72
2023/08/10 10:22:12;;;;;;;19.42;4.32;;;;;;;;;;5005838;28;20042;-72
2023/08/10 10:25:52;;;;;;;19.60;3.95;;;;;;;;;;5007089;28;20046;-70
2023/08/10 10:29:54;;;;;;;14.52;3.90;;;;;;;;;;5008673;28;20918;-70
2023/08/10 10:33:34;;;;;;;25.85;4.35;;;;;;;;;;5009792;28;20086;-72
2023/08/10 10:37:14;;;;;;;17.08;4.28;;;;;;;;;;5000882;28;20110;-74
2023/08/10 10:40:58;;;;;;;22.90;4.47;;;;;;;;;;5004791;28;20054;-72
2023/08/10 10:44:38;;;;;;;19.38;4.30;;;;;;;;;;5006651;28;20063;-69
2023/08/10 10:48:20;;;;;;;16.40;3.90;;;;;;;;;;5006733;28;20458;-68
2023/08/10 10:52:03;;;;;;;17.08;3.70;;;;;;;;;;5002209;28;20266;-71
2023/08/10 10:55:27;;;;;;;12.82;3.70;;;;;;;;;;5008331;28;20281;-70
2023/08/10 10:59:07;;;;;;;9.57;3.67;;;;;;;;;;5005725;28;20041;-72
2023/08/10 11:02:47;;;;;;;12.07;3.38;;;;;;;;;;5006467;28;20555;-68
2023/08/10 11:06:33;;;;;;;17.23;3.63;;;;;;;;;;5004435;28;20085;-70
2023/08/10 11:10:14;;;;;;;11.52;3.20;;;;;;;;;;5004718;28;20051;-70
2023/08/10 11:13:54;;;;;;;11.35;2.78;;;;;;;;;;5008006;28;20053;-70
2023/08/10 11:17:34;;;;;;;11.18;3.00;;;;;;;;;;5007702;28;20419;-70
2023/08/10 11:21:16;;;;;;;13.65;2.92;;;;;;;;;;5005934;28;20118;-68
2023/08/10 11:24:56;;;;;;;14.90;3.33;;;;;;;;;;5004995;28;20057;-67
2023/08/10 11:28:37;;;;;;;13.07;3.17;;;;;;;;;;5003720;28;20423;-68
2023/08/10 11:32:19;;;;;;;9.20;3.33;;;;;;;;;;4997323;28;20057;-73
2023/08/10 11:35:58;;;;;;;12.02;3.28;;;;;;;;;;4998001;28;20106;-70
2023/08/10 11:39:38;;;;;;;10.50;3.58;;;;;;;;;;5001194;28;20041;-70
2023/08/10 11:43:25;;;;;;;16.13;3.55;;;;;;;;;;4999268;28;20542;-69
2023/08/10 11:47:04;;;;;;;15.15;3.88;;;;;;;;;;5000719;28;20049;-70
2023/08/10 11:50:45;;;;;;;10.88;3.63;;;;;;;;;;4994297;28;20629;-69
2023/08/10 11:54:28;;;;;;;10.93;3.70;;;;;;;;;;5009855;28;20165;-69
2023/08/10 11:58:13;;;;;;;15.05;3.92;;;;;;;;;;5003599;28;20108;-71
2023/08/10 12:01:51;;;;;;;19.65;4.00;;;;;;;;;;5001489;28;20049;-68
2023/08/10 12:05:32;;;;;;;22.30;4.28;;;;;;;;;;5003801;28;20092;-68
2023/08/10 12:09:12;;;;;;;15.55;3.53;;;;;;;;;;5006343;28;20044;-69
2023/08/10 12:12:52;;;;;;;9.45;3.42;;;;;;;;;;5003295;28;20072;-71
2023/08/10 12:16:32;;;;;;;15.18;3.28;;;;;;;;;;5002293;28;20080;-70
2023/08/10 12:20:13;;;;;;;12.07;3.20;;;;;;;;;;5005587;28;20244;-72
2023/08/10 12:23:55;;;;;;;19.15;3.35;;;;;;;;;;5007018;28;20057;-71
2023/08/10 12:27:33;;;;;;;16.73;3.80;;;;;;;;;;5002629;28;20049;-70
2023/08/10 12:31:09;;;;;;;14.98;3.80;;;;;;;;;;4635534;27;15091432;-69
2023/08/10 12:34:50;;;;;;;16.63;3.75;;;;;;;;;;5152635;27;20489;-70
2023/08/10 12:38:30;;;;;;;10.93;3.25;;;;;;;;;;5152343;27;20081;-71
2023/08/10 12:42:10;;;;;;;15.73;3.33;;;;;;;;;;5152922;27;20033;-70
2023/08/10 12:45:51;;;;;;;20.67;3.95;;;;;;;;;;5158124;27;20038;-68
2023/08/10 12:49:31;;;;;;;14.38;3.40;;;;;;;;;;5153995;27;20458;-71
2023/08/10 12:53:11;;;;;;;16.10;3.65;;;;;;;;;;5158008;27;20117;-72
2023/08/10 12:56:52;;;;;;;19.30;3.83;;;;;;;;;;5150647;27;20109;-69
2023/08/10 13:00:41;;;;;;;13.98;3.90;;;;;;;;;;5153745;27;20050;-69
2023/08/10 13:04:21;;;;;;;16.25;3.42;;;;;;;;;;5155738;27;20050;-71
2023/08/10 13:08:02;;;;;;;20.65;4.28;;;;;;;;;;5153417;27;20482;-70
2023/08/10 13:11:42;;;;;;;15.18;3.90;;;;;;;;;;5156673;27;20121;-70
2023/08/10 13:15:22;;;;;;;23.80;4.43;;;;;;;;;;5152086;27;20058;-71
2023/08/10 13:19:03;;;;;;;26.45;4.70;;;;;;;;;;5153598;27;20038;-70
2023/08/10 13:22:44;;;;;;;25.17;4.38;;;;;;;;;;5153842;27;20141;-71
2023/08/10 13:26:24;;;;;;;27.05;4.80;;;;;;;;;;5152814;27;20150;-71
2023/08/10 13:30:05;;;;;;;29.42;5.50;;;;;;;;;;5151281;27;20414;-69
2023/08/10 13:33:45;;;;;;;40.38;5.95;;;;;;;;;;5153983;27;20711;-71
2023/08/10 13:37:26;;;;;;;57.67;8.18;;;;;;;;;;5154090;27;20068;-70
2023/08/10 13:41:06;;;;;;;58.63;9.18;;;;;;;;;;5146564;27;20430;-75
2023/08/10 13:44:46;;;;;;;110.95;9.35;;;;;;;;;;5138463;27;20140;-71
2023/08/10 13:48:27;;;;;;;64.65;8.30;;;;;;;;;;5139736;27;20722;-74
2023/08/10 13:52:07;;;;;;;77.28;10.10;;;;;;;;;;5137138;27;20053;-72
2023/08/10 13:55:47;;;;;;;67.68;8.98;;;;;;;;;;5137431;27;20478;-72
2023/08/10 13:59:28;;;;;;;85.95;10.05;;;;;;;;;;5139603;27;20090;-71
2023/08/10 14:03:09;;;;;;;57.63;8.95;;;;;;;;;;5139052;27;20490;-71
2023/08/10 14:06:49;;;;;;;62.13;7.72;;;;;;;;;;5138395;27;20066;-69
2023/08/10 14:10:29;;;;;;;56.10;5.32;;;;;;;;;;5142258;27;20149;-71
2023/08/10 14:14:11;;;;;;;35.17;5.45;;;;;;;;;;5138160;27;20042;-71
2023/08/10 14:17:53;;;;;;;23.77;4.07;;;;;;;;;;5139037;27;20144;-71
2023/08/10 14:21:31;;;;;;;23.75;4.00;;;;;;;;;;5139187;27;20470;-69
2023/08/10 14:25:11;;;;;;;23.17;3.75;;;;;;;;;;5139240;27;22361;-70
2023/08/10 14:28:52;;;;;;;17.67;3.30;;;;;;;;;;5138869;27;20061;-71
2023/08/10 14:32:32;;;;;;;20.83;3.90;;;;;;;;;;5138487;27;20143;-71
2023/08/10 14:36:12;;;;;;;30.27;4.47;;;;;;;;;;5137108;27;20677;-72
2023/08/10 14:39:53;;;;;;;21.27;3.40;;;;;;;;;;5140403;27;20042;-74
2023/08/10 14:43:33;;;;;;;20.73;3.85;;;;;;;;;;5139444;27;20272;-69
2023/08/10 14:47:13;;;;;;;16.20;3.42;;;;;;;;;;5139455;27;20736;-71
2023/08/10 14:50:53;;;;;;;20.02;3.42;;;;;;;;;;5136893;27;20038;-69
2023/08/10 14:54:34;;;;;;;20.13;3.47;;;;;;;;;;5142291;27;20120;-72
2023/08/10 14:58:14;;;;;;;18.08;3.28;;;;;;;;;;5139370;27;20308;-70
2023/08/10 15:01:54;;;;;;;17.80;3.17;;;;;;;;;;5136486;27;20051;-72
2023/08/10 15:05:35;;;;;;;18.20;3.42;;;;;;;;;;5138359;27;20043;-69
2023/08/10 15:09:16;;;;;;;20.05;3.45;;;;;;;;;;5139363;27;20050;-71
2023/08/10 15:12:57;;;;;;;15.77;3.10;;;;;;;;;;5141309;27;20489;-71
2023/08/10 15:16:37;;;;;;;17.40;3.17;;;;;;;;;;5139395;27;20050;-70
2023/08/10 15:20:18;;;;;;;14.23;3.15;;;;;;;;;;5135391;27;20069;-74
2023/08/10 15:23:58;;;;;;;9.43;3.10;;;;;;;;;;5138520;27;20489;-71
2023/08/10 15:27:39;;;;;;;10.43;3.15;;;;;;;;;;5136217;27;20099;-69
2023/08/10 15:31:18;;;;;;;19.13;3.55;;;;;;;;;;5136071;27;20525;-69
2023/08/10 15:34:59;;;;;;;11.45;3.10;;;;;;;;;;5140461;27;20059;-70
2023/08/10 15:38:39;;;;;;;12.82;3.20;;;;;;;;;;5140785;27;20057;-68
2023/08/10 15:42:19;;;;;;;13.15;3.45;;;;;;;;;;5134412;27;20129;-70
2023/08/10 15:46:00;;;;;;;13.52;3.45;;;;;;;;;;5135628;27;20380;-68
2023/08/10 15:49:40;;;;;;;15.10;3.00;;;;;;;;;;5136332;27;20513;-70
2023/08/10 15:53:20;;;;;;;13.98;3.28;;;;;;;;;;5140274;27;20069;-70
2023/08/10 15:57:01;;;;;;;15.10;2.85;;;;;;;;;;5133668;27;20550;-68
2023/08/10 16:00:41;;;;;;;17.65;3.65;;;;;;;;;;5135935;27;20042;-71
2023/08/10 16:04:21;;;;;;;14.70;3.80;;;;;;;;;;5137851;27;20042;-72
2023/08/10 16:08:02;;;;;;;16.65;3.50;;;;;;;;;;5141456;27;20053;-69
2023/08/10 16:11:42;;;;;;;16.67;3.53;;;;;;;;;;5141611;27;20047;-71
2023/08/10 16:15:26;;;;;;;15.13;3.75;;;;;;;;;;5136696;27;20093;-70
2023/08/10 16:19:06;;;;;;;16.80;3.85;;;;;;;;;;5137624;27;20052;-69
2023/08/10 16:22:47;;;;;;;13.52;3.22;;;;;;;;;;5137089;27;20047;-73
2023/08/10 16:26:30;;;;;;;12.80;3.38;;;;;;;;;;5137196;27;20078;-70
2023/08/10 16:30:11;;;;;;;15.45;3.60;;;;;;;;;;5134052;27;20046;-70
2023/08/10 16:33:51;;;;;;;13.55;4.00;;;;;;;;;;5135711;27;20069;-67
2023/08/10 16:37:31;;;;;;;12.27;3.33;;;;;;;;;;5134543;27;20409;-70
2023/08/10 16:41:12;;;;;;;18.67;3.90;;;;;;;;;;5135443;27;20046;-72
2023/08/10 16:44:52;;;;;;;17.27;3.80;;;;;;;;;;5140451;27;20418;-70
2023/08/10 16:48:32;;;;;;;17.35;3.63;;;;;;;;;;5133475;27;20146;-70
2023/08/10 16:52:12;;;;;;;14.88;3.58;;;;;;;;;;5133571;27;20468;-70
2023/08/10 16:55:53;;;;;;;17.60;3.88;;;;;;;;;;5132829;27;20099;-70
2023/08/10 16:59:34;;;;;;;14.55;3.70;;;;;;;;;;5130890;27;20046;-70
2023/08/10 17:03:15;;;;;;;17.90;4.13;;;;;;;;;;5134987;27;20046;-72
2023/08/10 17:06:55;;;;;;;13.93;3.35;;;;;;;;;;5130084;27;20053;-70
2023/08/10 17:10:36;;;;;;;17.70;3.35;;;;;;;;;;5136391;27;20058;-71
2023/08/10 17:14:17;;;;;;;17.83;3.55;;;;;;;;;;5133153;27;20380;-68
2023/08/10 17:17:57;;;;;;;17.13;3.50;;;;;;;;;;5138417;27;20072;-70
2023/08/10 17:21:37;;;;;;;15.63;3.35;;;;;;;;;;5135954;27;20034;-71
2023/08/10 17:25:18;;;;;;;21.42;3.60;;;;;;;;;;5134835;27;20046;-69
2023/08/10 17:28:58;;;;;;;15.48;3.22;;;;;;;;;;5138477;27;20413;-70
2023/08/10 17:32:38;;;;;;;17.90;3.72;;;;;;;;;;5135614;27;20066;-69
2023/08/10 17:36:19;;;;;;;14.85;3.20;;;;;;;;;;5134544;27;20398;-71
2023/08/10 17:39:59;;;;;;;15.93;3.78;;;;;;;;;;5135080;27;22152;-72
2023/08/10 17:43:39;;;;;;;12.73;3.03;;;;;;;;;;5133424;27;20049;-72
2023/08/10 17:47:20;;;;;;;25.15;4.22;;;;;;;;;;5135518;27;20050;-71
2023/08/10 17:51:00;;;;;;;20.98;3.50;;;;;;;;;;5141702;27;20717;-72
2023/08/10 17:54:41;;;;;;;17.52;3.78;;;;;;;;;;5144588;27;20053;-74
2023/08/10 17:58:21;;;;;;;17.15;3.33;;;;;;;;;;5139180;27;20408;-71
2023/08/10 18:02:01;;;;;;;18.80;3.72;;;;;;;;;;5138891;27;20042;-71
2023/08/10 18:05:41;;;;;;;18.15;3.55;;;;;;;;;;5140898;27;20046;-73
2023/08/10 18:09:22;;;;;;;19.80;3.58;;;;;;;;;;5135115;27;20403;-70
2023/08/10 18:13:02;;;;;;;22.83;3.67;;;;;;;;;;5137613;27;20054;-72
2023/08/10 18:16:44;;;;;;;18.27;3.30;;;;;;;;;;5133825;27;20038;-73
2023/08/10 18:20:24;;;;;;;18.17;3.45;;;;;;;;;;5134853;27;21375;-73
2023/08/10 18:24:05;;;;;;;24.85;4.07;;;;;;;;;;5134928;27;20238;-73
2023/08/10 18:27:45;;;;;;;14.35;3.00;;;;;;;;;;5137866;27;20046;-72
2023/08/10 18:31:28;;;;;;;16.60;3.70;;;;;;;;;;5135381;27;20055;-72
2023/08/10 18:35:08;;;;;;;16.45;3.17;;;;;;;;;;5137280;27;20046;-73
2023/08/10 18:38:49;;;;;;;19.55;3.55;;;;;;;;;;5135702;27;20173;-68
2023/08/10 18:42:29;;;;;;;17.20;3.30;;;;;;;;;;5135407;27;20081;-70
2023/08/10 18:46:09;;;;;;;16.00;3.55;;;;;;;;;;5134710;27;20053;-66
2023/08/10 18:49:50;;;;;;;25.60;4.32;;;;;;;;;;5135132;27;20054;-66
2023/08/10 18:53:30;;;;;;;15.77;3.88;;;;;;;;;;5138023;27;20205;-67
2023/08/10 18:57:10;;;;;;;19.88;3.60;;;;;;;;;;5139069;27;20054;-67
2023/08/10 19:00:51;;;;;;;13.75;3.50;;;;;;;;;;5139257;27;21034;-66
2023/08/10 19:04:32;;;;;;;14.80;3.63;;;;;;;;;;5140962;27;20066;-69
2023/08/10 19:08:12;;;;;;;30.33;4.40;;;;;;;;;;5134912;27;20110;-68
2023/08/10 19:11:53;;;;;;;19.42;4.13;;;;;;;;;;5136846;27;20045;-68
2023/08/10 19:15:33;;;;;;;16.38;3.67;;;;;;;;;;5136345;27;20505;-66
2023/08/10 19:19:13;;;;;;;21.42;3.83;;;;;;;;;;5132902;27;20647;-69
2023/08/10 19:22:54;;;;;;;18.92;3.70;;;;;;;;;;5133511;27;20379;-72
2023/08/10 19:26:34;;;;;;;18.02;3.63;;;;;;;;;;5134363;27;20360;-67
2023/08/10 19:30:17;;;;;;;19.95;3.90;;;;;;;;;;5133319;27;20536;-69
2023/08/10 19:33:57;;;;;;;23.88;4.15;;;;;;;;;;5136030;27;20051;-66
2023/08/10 19:37:37;;;;;;;19.70;3.90;;;;;;;;;;5134237;27;20383;-71
2023/08/10 19:41:17;;;;;;;16.05;3.63;;;;;;;;;;5131674;27;20042;-68
2023/08/10 19:44:59;;;;;;;21.95;3.78;;;;;;;;;;5132365;27;20050;-70
2023/08/10 19:48:40;;;;;;;19.50;4.20;;;;;;;;;;5133033;27;20491;-71
2023/08/10 19:52:21;;;;;;;23.42;4.30;;;;;;;;;;5132805;27;20129;-70
2023/08/10 19:56:01;;;;;;;16.63;4.30;;;;;;;;;;5132300;27;20636;-71
2023/08/10 19:59:41;;;;;;;17.00;3.80;;;;;;;;;;5133120;27;20042;-69
2023/08/10 20:03:24;;;;;;;17.05;4.00;;;;;;;;;;5133933;27;20042;-67
2023/08/10 20:07:02;;;;;;;20.95;4.13;;;;;;;;;;5128517;27;20974;-70
2023/08/10 20:10:42;;;;;;;15.77;3.55;;;;;;;;;;5135840;27;20046;-70
2023/08/10 20:14:23;;;;;;;22.70;3.78;;;;;;;;;;5134486;27;20051;-69
2023/08/10 20:18:03;;;;;;;14.68;4.22;;;;;;;;;;5135691;27;20055;-71
2023/08/10 20:21:43;;;;;;;20.10;4.30;;;;;;;;;;5133852;27;20038;-67
2023/08/10 20:25:24;;;;;;;22.63;4.00;;;;;;;;;;5135237;27;20044;-72
2023/08/10 20:29:04;;;;;;;17.67;3.70;;;;;;;;;;5135513;27;20425;-68
2023/08/10 20:32:45;;;;;;;16.52;3.88;;;;;;;;;;5136826;27;20485;-69
2023/08/10 20:36:25;;;;;;;27.52;4.47;;;;;;;;;;5134341;27;20612;-68
2023/08/10 20:40:05;;;;;;;18.08;4.22;;;;;;;;;;5135324;27;20512;-70
2023/08/10 20:43:46;;;;;;;14.55;3.65;;;;;;;;;;5136947;27;20050;-71
2023/08/10 20:47:26;;;;;;;14.88;3.85;;;;;;;;;;5136340;27;20581;-79
2023/08/10 20:51:07;;;;;;;20.15;3.80;;;;;;;;;;5135409;27;20095;-73
2023/08/10 20:54:47;;;;;;;14.70;3.75;;;;;;;;;;5145339;27;20054;-76
2023/08/10 20:58:27;;;;;;;13.82;3.22;;;;;;;;;;5140285;27;20130;-70